createdAt,value
2019-01-11T00:00:47.648Z,-0.70
2019-01-11T00:07:18.867Z,-0.70
2019-01-11T00:13:50.058Z,-0.60
2019-01-11T00:20:21.339Z,-0.60
2019-01-11T00:26:52.829Z,-0.70
2019-01-11T00:33:23.493Z,-0.90
2019-01-11T00:39:54.362Z,-0.80
2019-01-11T00:43:19.160Z,-0.70
2019-01-11T00:49:50.467Z,-0.80
2019-01-11T00:53:14.975Z,-0.80
2019-01-11T00:59:45.776Z,-0.90
2019-01-11T01:06:16.810Z,-0.90
2019-01-11T01:08:46.958Z,-1.00
2019-01-11T01:12:11.421Z,-1.00
2019-01-11T01:18:42.010Z,-0.90
2019-01-11T01:25:14.016Z,-0.90
2019-01-11T01:31:45.091Z,-0.90
2019-01-11T01:38:15.586Z,-1.00
2019-01-11T01:44:46.609Z,-1.00
2019-01-11T01:51:17.515Z,-1.10
2019-01-11T01:54:41.857Z,-1.20
2019-01-11T02:01:12.565Z,-1.20
2019-01-11T02:04:37.338Z,-1.20
2019-01-11T02:11:07.605Z,-1.20
2019-01-11T02:17:38.590Z,-1.30
2019-01-11T02:24:09.768Z,-1.50
2019-01-11T02:30:40.985Z,-1.50
2019-01-11T02:34:05.709Z,-1.50
2019-01-11T02:40:36.700Z,-1.50
2019-01-11T02:47:07.376Z,-1.40
2019-01-11T02:53:38.247Z,-1.30
2019-01-11T02:57:02.632Z,-1.30
2019-01-11T03:03:33.742Z,-1.30
2019-01-11T03:10:06.940Z,-1.40
2019-01-11T03:12:37.001Z,-1.50
2019-01-11T03:19:07.548Z,-1.60
2019-01-11T03:25:38.416Z,-1.70
2019-01-11T03:29:03.211Z,-1.70
2019-01-11T03:35:33.313Z,-1.70
2019-01-11T03:38:58.106Z,-1.70
2019-01-11T03:45:30.077Z,-1.70
2019-01-11T03:52:01.337Z,-1.70
2019-01-11T03:55:25.588Z,-1.80
2019-01-11T04:01:58.077Z,-1.70
2019-01-11T04:05:22.456Z,-1.70
2019-01-11T04:11:53.272Z,-1.90
2019-01-11T04:18:26.172Z,-1.90
2019-01-11T04:25:09.835Z,-1.80
2019-01-11T04:27:49.892Z,-1.80
2019-01-11T04:34:21.399Z,-1.70
2019-01-11T04:40:52.691Z,-1.80
2019-01-11T04:47:24.334Z,-1.80
2019-01-11T04:50:49.897Z,-1.70
2019-01-11T04:57:20.725Z,-1.70
2019-01-11T05:00:45.094Z,-1.60
2019-01-11T05:07:16.026Z,-1.80
2019-01-11T05:13:47.373Z,-1.70
2019-01-11T05:17:11.823Z,-1.70
2019-01-11T05:23:42.397Z,-1.90
2019-01-11T05:30:16.027Z,-1.80
2019-01-11T05:36:46.654Z,-2.00
2019-01-11T05:43:17.656Z,-2.10
2019-01-11T05:46:42.154Z,-2.10
2019-01-11T05:53:13.529Z,-2.20
2019-01-11T05:56:38.149Z,-2.30
2019-01-11T06:03:09.537Z,-2.50
2019-01-11T06:06:34.159Z,-2.70
2019-01-11T06:13:04.810Z,-2.80
2019-01-11T06:16:29.209Z,-2.80
2019-01-11T06:23:00.330Z,-3.00
2019-01-11T06:29:30.570Z,-3.10
2019-01-11T06:32:00.393Z,-3.20
2019-01-11T06:34:57.417Z,-3.40
2019-01-11T06:41:28.975Z,-3.50
2019-01-11T06:47:59.190Z,-3.50
2019-01-11T06:54:29.129Z,-3.40
2019-01-11T06:57:53.160Z,-3.30
2019-01-11T07:04:23.098Z,-3.10
2019-01-11T07:10:53.226Z,-3.00
2019-01-11T07:14:00.630Z,-3.00
2019-01-11T07:20:31.822Z,-3.00
2019-01-11T07:23:56.453Z,-2.80
2019-01-11T07:30:28.839Z,-2.60
2019-01-11T07:32:58.813Z,-2.50
2019-01-11T07:36:23.086Z,-2.30
2019-01-11T07:42:54.017Z,-2.00
2019-01-11T07:46:18.278Z,-1.90
2019-01-11T07:52:48.671Z,-1.60
2019-01-11T07:59:20.991Z,-1.40
2019-01-11T08:05:51.771Z,-1.10
2019-01-11T08:09:15.930Z,-1.20
2019-01-11T08:15:48.925Z,-0.90
2019-01-11T08:19:13.016Z,-0.60
2019-01-11T08:25:44.050Z,-0.30
2019-01-11T08:32:15.051Z,-0.40
2019-01-11T08:38:46.276Z,-0.70
2019-01-11T08:45:16.632Z,-0.60
2019-01-11T08:51:47.490Z,-0.80
2019-01-11T08:58:18.383Z,-1.10
2019-01-11T09:01:42.910Z,-0.90
2019-01-11T09:08:13.956Z,-0.40
2019-01-11T09:14:48.212Z,-0.30
2019-01-11T09:18:12.842Z,-0.20
2019-01-11T09:24:43.401Z,-0.30
2019-01-11T09:31:14.658Z,-0.40
2019-01-11T09:33:45.905Z,-0.60
2019-01-11T09:40:16.655Z,-0.50
2019-01-11T09:43:40.876Z,-0.30
2019-01-11T09:50:11.772Z,0.00
2019-01-11T09:56:42.434Z,0.00
2019-01-11T10:03:13.630Z,0.20
2019-01-11T10:09:44.605Z,0.30
2019-01-11T10:12:51.091Z,0.40
2019-01-11T10:19:22.517Z,0.70
2019-01-11T10:22:46.844Z,0.90
2019-01-11T10:29:17.514Z,1.40
2019-01-11T10:31:50.071Z,1.80
2019-01-11T10:34:19.965Z,2.00
2019-01-11T10:40:50.833Z,2.10
2019-01-11T10:44:15.346Z,2.20
2019-01-11T10:50:45.932Z,1.90
2019-01-11T10:54:10.351Z,2.00
2019-01-11T11:00:41.344Z,2.50
2019-01-11T11:04:06.007Z,2.50
2019-01-11T11:10:36.771Z,2.80
2019-01-11T11:17:07.636Z,2.80
2019-01-11T11:20:32.207Z,2.60
2019-01-11T11:27:03.463Z,2.10
2019-01-11T11:30:27.796Z,2.20
2019-01-11T11:37:00.454Z,2.50
2019-01-11T11:43:31.792Z,2.60
2019-01-11T11:50:02.565Z,2.30
2019-01-11T11:56:35.799Z,2.90
2019-01-11T12:00:00.415Z,3.20
2019-01-11T12:06:31.411Z,3.50
2019-01-11T12:13:02.349Z,3.30
2019-01-11T12:16:26.681Z,2.80
2019-01-11T12:22:57.573Z,2.80
2019-01-11T12:26:22.450Z,2.70
2019-01-11T12:32:52.841Z,3.10
2019-01-11T12:35:46.168Z,2.80
2019-01-11T12:38:16.135Z,2.00
2019-01-11T12:44:46.358Z,2.10
2019-01-11T12:51:16.029Z,2.30
2019-01-11T12:57:46.089Z,3.10
2019-01-11T13:01:10.338Z,3.50
2019-01-11T13:07:40.427Z,4.00
2019-01-11T13:11:04.629Z,4.00
2019-01-11T13:17:35.048Z,4.00
2019-01-11T13:20:59.336Z,4.10
2019-01-11T13:27:30.422Z,4.10
2019-01-11T13:30:54.833Z,3.60
2019-01-11T13:37:25.801Z,3.40
2019-01-11T13:43:56.114Z,3.00
2019-01-11T13:47:20.882Z,2.80
2019-01-11T13:53:51.150Z,2.60
2019-01-11T13:57:15.761Z,2.60
2019-01-11T14:03:46.394Z,2.60
2019-01-11T14:07:10.660Z,2.60
2019-01-11T14:13:41.645Z,2.90
2019-01-11T14:17:06.106Z,2.40
2019-01-11T14:23:37.322Z,2.00
2019-01-11T14:26:51.274Z,2.10
2019-01-11T14:33:22.081Z,1.90
2019-01-11T14:36:46.216Z,1.70
2019-01-11T14:39:16.061Z,1.60
2019-01-11T14:45:46.014Z,1.60
2019-01-11T14:52:20.325Z,1.10
2019-01-11T14:58:48.643Z,1.20
2019-01-11T15:02:12.850Z,1.30
2019-01-11T15:08:43.495Z,1.30
2019-01-11T15:12:07.616Z,1.20
2019-01-11T15:18:38.501Z,1.20
2019-01-11T15:22:02.979Z,1.10
2019-01-11T15:28:34.152Z,1.10
2019-01-11T15:31:58.602Z,0.90
2019-01-11T15:38:29.825Z,0.60
2019-01-11T15:45:00.553Z,0.50
2019-01-11T15:51:31.411Z,0.40
2019-01-11T15:58:02.255Z,0.30
2019-01-11T16:04:32.936Z,0.00
2019-01-11T16:07:57.648Z,0.00
2019-01-11T16:15:04.956Z,0.10
2019-01-11T16:18:29.660Z,0.00
2019-01-11T16:24:59.742Z,0.10
2019-01-11T16:28:24.190Z,0.10
2019-01-11T16:34:54.459Z,-0.10
2019-01-11T16:38:18.734Z,-0.10
2019-01-11T16:40:48.764Z,-0.10
2019-01-11T16:47:18.878Z,0.00
2019-01-11T16:53:49.049Z,-0.40
2019-01-11T17:00:20.628Z,-0.50
2019-01-11T17:06:50.829Z,-0.40
2019-01-11T17:13:21.070Z,-0.30
2019-01-11T17:19:52.174Z,-0.30
2019-01-11T17:23:16.703Z,-0.40
2019-01-11T17:29:47.431Z,-0.40
2019-01-11T17:33:11.861Z,-0.40
2019-01-11T17:39:42.655Z,-0.50
2019-01-11T17:46:13.754Z,-0.50
2019-01-11T17:49:38.392Z,-0.40
2019-01-11T17:56:09.381Z,-0.40
2019-01-11T17:59:33.739Z,-0.50
2019-01-11T18:06:04.518Z,-0.50
2019-01-11T18:12:35.131Z,-0.70
2019-01-11T18:15:59.703Z,-0.60
2019-01-11T18:22:33.066Z,-0.60
2019-01-11T18:29:03.901Z,-0.50
2019-01-11T18:35:34.661Z,-0.50
2019-01-11T18:42:05.731Z,-0.50
2019-01-11T18:48:36.778Z,-0.40
2019-01-11T18:55:08.107Z,-0.50
2019-01-11T19:01:39.260Z,-0.50
2019-01-11T19:08:10.349Z,-0.60
2019-01-11T19:14:41.129Z,-0.90
2019-01-11T19:21:12.003Z,-0.80
2019-01-11T19:27:43.027Z,-0.70
2019-01-11T19:34:14.068Z,-0.70
2019-01-11T19:37:38.447Z,-0.70
2019-01-11T19:44:09.464Z,-0.60
2019-01-11T19:50:40.398Z,-0.60
2019-01-11T19:54:05.046Z,-0.70
2019-01-11T20:00:35.948Z,-0.70
2019-01-11T20:04:00.644Z,-0.80
2019-01-11T20:10:31.854Z,-0.70
2019-01-11T20:13:56.182Z,-0.70
2019-01-11T20:20:27.879Z,-0.80
2019-01-11T20:26:58.879Z,-0.80
2019-01-11T20:30:24.530Z,-0.80
2019-01-11T20:37:04.188Z,-0.80
2019-01-11T20:43:35.304Z,-0.80
2019-01-11T20:46:05.410Z,-0.90
2019-01-11T20:52:36.045Z,-0.90
2019-01-11T20:59:06.962Z,-0.90
2019-01-11T21:05:38.015Z,-0.80
2019-01-11T21:09:02.584Z,-0.80
2019-01-11T21:15:33.009Z,-0.80
2019-01-11T21:18:57.441Z,-0.80
2019-01-11T21:25:28.581Z,-0.80
2019-01-11T21:31:59.070Z,-0.90
2019-01-11T21:35:23.602Z,-1.00
2019-01-11T21:41:54.734Z,-1.10
2019-01-11T21:48:25.671Z,-1.10
2019-01-11T21:54:56.761Z,-1.00
2019-01-11T21:58:21.685Z,-0.90
2019-01-11T22:04:52.115Z,-0.90
2019-01-11T22:08:16.661Z,-0.90
2019-01-11T22:14:47.677Z,-0.90
2019-01-11T22:21:18.794Z,-0.70
2019-01-11T22:24:43.100Z,-0.70
2019-01-11T22:31:13.941Z,-0.70
2019-01-11T22:34:38.427Z,-0.70
2019-01-11T22:41:08.890Z,-0.60
2019-01-11T22:47:40.736Z,-0.50
2019-01-11T22:50:12.871Z,-0.50
2019-01-11T22:56:43.128Z,-0.70
2019-01-11T23:03:22.848Z,-0.70
2019-01-11T23:06:47.186Z,-0.70
2019-01-11T23:13:18.441Z,-0.70
2019-01-11T23:19:49.389Z,-0.70
2019-01-11T23:23:13.745Z,-0.80
2019-01-11T23:29:44.566Z,-0.80
2019-01-11T23:36:15.375Z,-0.80
2019-01-11T23:38:56.047Z,-0.90
2019-01-11T23:45:26.491Z,-0.90
2019-01-11T23:51:56.677Z,-0.80
2019-01-11T23:58:26.755Z,-0.70
